createdAt,value
2023-04-07T00:00:08.403Z,42.25
2023-04-07T00:02:37.049Z,41.67
2023-04-07T00:05:06.148Z,43.58
2023-04-07T00:07:42.068Z,42.80
2023-04-07T00:10:17.238Z,43.45
2023-04-07T00:12:47.057Z,43.20
2023-04-07T00:15:15.860Z,42.90
2023-04-07T00:17:44.469Z,43.22
2023-04-07T00:20:13.992Z,43.63
2023-04-07T00:22:42.602Z,41.92
2023-04-07T00:25:11.438Z,43.42
2023-04-07T00:27:39.904Z,43.60
2023-04-07T00:30:10.917Z,45.78
2023-04-07T00:32:39.531Z,43.25
2023-04-07T00:35:08.937Z,44.42
2023-04-07T00:37:37.436Z,44.03
2023-04-07T00:40:07.460Z,43.88
2023-04-07T00:42:36.086Z,43.53
2023-04-07T00:45:05.003Z,45.28
2023-04-07T00:47:34.939Z,44.60
2023-04-07T00:50:06.059Z,44.10
2023-04-07T00:52:35.120Z,46.70
2023-04-07T00:55:03.709Z,45.55
2023-04-07T00:57:32.342Z,48.72
2023-04-07T01:00:00.872Z,46.22
2023-04-07T01:02:39.776Z,43.63
2023-04-07T01:10:32.266Z,43.00
2023-04-07T01:13:10.131Z,44.83
2023-04-07T01:15:40.923Z,46.35
2023-04-07T01:18:17.547Z,47.77
2023-04-07T01:20:50.081Z,44.47
2023-04-07T01:23:33.569Z,45.33
2023-04-07T01:26:18.257Z,44.55
2023-04-07T01:29:34.348Z,43.88
2023-04-07T01:32:08.361Z,42.72
2023-04-07T01:34:38.479Z,42.92
2023-04-07T01:37:08.666Z,43.85
2023-04-07T01:39:39.395Z,43.08
2023-04-07T01:42:09.364Z,44.40
2023-04-07T01:44:39.533Z,43.22
2023-04-07T01:47:08.293Z,43.28
2023-04-07T01:49:37.877Z,43.17
2023-04-07T01:52:07.378Z,43.55
2023-04-07T01:54:36.803Z,43.03
2023-04-07T01:57:05.578Z,43.55
2023-04-07T01:59:34.009Z,44.00
2023-04-07T02:02:04.036Z,43.22
2023-04-07T02:04:39.082Z,43.05
2023-04-07T02:07:16.500Z,43.50
2023-04-07T02:09:45.959Z,43.00
2023-04-07T02:12:17.189Z,43.05
2023-04-07T02:14:46.124Z,43.42
2023-04-07T02:17:17.570Z,44.10
2023-04-07T02:19:47.754Z,43.08
2023-04-07T02:22:17.596Z,45.63
2023-04-07T02:24:46.244Z,48.47
2023-04-07T02:27:14.684Z,51.60
2023-04-07T02:29:43.105Z,51.78
2023-04-07T02:32:11.851Z,46.38
2023-04-07T02:34:42.835Z,44.90
2023-04-07T02:37:11.562Z,45.80
2023-04-07T02:39:40.033Z,44.53
2023-04-07T02:42:08.456Z,44.42
2023-04-07T02:44:36.897Z,43.60
2023-04-07T02:47:05.493Z,44.65
2023-04-07T02:49:33.885Z,44.15
2023-04-07T02:54:32.000Z,43.90
2023-04-07T03:56:28.883Z,42.80
2023-04-07T03:58:57.726Z,43.08
2023-04-07T04:01:27.777Z,42.40
2023-04-07T04:03:56.544Z,41.83
2023-04-07T04:06:27.180Z,42.10
2023-04-07T04:08:55.657Z,42.75
2023-04-07T04:11:24.081Z,43.28
2023-04-07T04:13:52.746Z,42.03
2023-04-07T04:16:21.438Z,41.42
2023-04-07T04:18:51.245Z,44.28
2023-04-07T04:21:19.885Z,42.45
2023-04-07T04:23:48.330Z,41.65
2023-04-07T04:26:16.796Z,43.35
2023-04-07T04:28:45.308Z,43.33
2023-04-07T04:31:13.754Z,43.47
2023-04-07T04:33:42.252Z,42.67
2023-04-07T04:36:12.109Z,41.65
2023-04-07T04:38:40.565Z,42.63
2023-04-07T04:41:09.064Z,41.45
2023-04-07T04:43:37.466Z,42.38
2023-04-07T04:46:06.296Z,42.30
2023-04-07T04:48:34.801Z,41.83
2023-04-07T04:51:03.294Z,41.65
2023-04-07T04:53:33.285Z,42.00
2023-04-07T04:56:01.753Z,41.67
2023-04-07T04:58:30.254Z,41.38
2023-04-07T05:00:59.818Z,41.55
2023-04-07T05:03:29.983Z,41.13
2023-04-07T05:05:58.624Z,41.67
2023-04-07T05:08:27.341Z,42.92
2023-04-07T05:10:57.168Z,41.30
2023-04-07T05:13:26.570Z,41.72
2023-04-07T05:15:55.082Z,41.47
2023-04-07T05:18:23.614Z,43.25
2023-04-07T05:20:52.411Z,42.78
2023-04-07T05:23:21.019Z,41.88
2023-04-07T05:25:49.463Z,41.45
2023-04-07T05:28:19.717Z,41.00
2023-04-07T05:30:48.985Z,41.60
2023-04-07T05:33:17.530Z,41.03
2023-04-07T05:35:46.798Z,40.92
2023-04-07T05:38:16.827Z,41.60
2023-04-07T05:40:45.636Z,41.67
2023-04-07T05:43:14.172Z,41.38
2023-04-07T05:45:44.053Z,41.40
2023-04-07T05:48:12.647Z,42.75
2023-04-07T05:50:41.139Z,41.53
2023-04-07T05:53:09.614Z,42.10
2023-04-07T05:55:38.097Z,42.65
2023-04-07T05:58:06.587Z,41.00
2023-04-07T06:00:35.112Z,41.60
2023-04-07T06:03:05.042Z,41.65
2023-04-07T06:05:34.785Z,41.83
2023-04-07T06:08:03.287Z,41.22
2023-04-07T06:10:32.471Z,41.20
2023-04-07T06:13:01.101Z,41.50
2023-04-07T06:15:29.532Z,41.70
2023-04-07T06:17:58.159Z,42.45
2023-04-07T06:20:28.458Z,40.97
2023-04-07T06:22:57.368Z,41.15
2023-04-07T06:25:25.991Z,41.25
2023-04-07T06:27:55.680Z,41.35
2023-04-07T06:30:24.192Z,42.75
2023-04-07T06:32:52.795Z,40.95
2023-04-07T06:35:21.553Z,41.70
2023-04-07T06:37:51.647Z,41.47
2023-04-07T08:31:48.866Z,41.40
2023-04-07T08:34:18.974Z,43.67
2023-04-07T08:36:47.574Z,41.72
2023-04-07T08:39:17.950Z,41.95
2023-04-07T08:41:48.757Z,42.63
2023-04-07T08:44:17.868Z,42.08
2023-04-07T08:46:48.082Z,41.60
2023-04-07T08:49:18.820Z,41.78
2023-04-07T08:51:48.662Z,41.70
2023-04-07T08:54:22.216Z,41.47
2023-04-07T08:56:51.377Z,43.25
2023-04-07T08:59:25.392Z,41.95
2023-04-07T09:01:54.245Z,42.50
2023-04-07T09:04:24.799Z,42.30
2023-04-07T09:06:53.315Z,44.03
2023-04-07T09:09:24.454Z,43.65
2023-04-07T09:11:53.960Z,45.67
2023-04-07T09:14:23.265Z,42.47
2023-04-07T09:16:51.737Z,44.17
2023-04-07T09:19:20.257Z,43.60
2023-04-07T09:21:53.315Z,42.17
2023-04-07T09:24:28.981Z,42.58
2023-04-07T09:27:13.975Z,42.67
2023-04-07T09:29:46.008Z,42.58
2023-04-07T09:32:23.107Z,42.25
2023-04-07T09:35:01.348Z,42.10
2023-04-07T09:37:29.740Z,42.50
2023-04-07T09:39:59.662Z,42.47
2023-04-07T09:42:32.370Z,43.20
2023-04-07T09:45:01.586Z,48.15
2023-04-07T09:47:31.793Z,43.40
2023-04-07T09:50:06.838Z,43.58
2023-04-07T09:52:53.556Z,44.55
2023-04-07T09:55:25.806Z,44.20
2023-04-07T12:26:23.406Z,45.67
2023-04-07T12:28:51.995Z,45.25
2023-04-07T12:31:20.579Z,45.60
2023-04-07T12:33:50.854Z,45.53
2023-04-07T12:36:19.509Z,45.15
2023-04-07T12:38:48.066Z,45.50
2023-04-07T12:41:16.705Z,48.15
2023-04-07T12:43:46.854Z,47.10
2023-04-07T12:46:15.713Z,44.05
2023-04-07T12:48:45.953Z,47.05
2023-04-07T12:51:16.386Z,44.25
2023-04-07T12:53:44.832Z,44.17
2023-04-07T12:56:14.025Z,45.25
2023-04-07T12:58:43.065Z,43.78
2023-04-07T13:01:11.885Z,43.30
2023-04-07T13:03:40.669Z,43.15
2023-04-07T13:06:10.913Z,44.75
2023-04-07T13:08:41.071Z,43.63
2023-04-07T13:11:09.548Z,43.25
2023-04-07T13:13:38.083Z,44.72
2023-04-07T13:16:06.967Z,43.10
2023-04-07T13:18:35.428Z,43.40
2023-04-07T13:26:13.406Z,42.45
2023-04-07T13:28:42.871Z,42.60
2023-04-07T13:31:15.795Z,43.00
2023-04-07T13:33:44.534Z,43.03
2023-04-07T13:36:13.144Z,44.28
2023-04-07T13:38:42.537Z,42.65
2023-04-07T13:41:12.341Z,43.58
2023-04-07T13:43:40.756Z,44.08
2023-04-07T13:46:20.806Z,43.35
2023-04-07T13:48:55.515Z,42.40
2023-04-07T13:51:24.065Z,46.28
2023-04-07T13:53:52.578Z,42.55
2023-04-07T13:56:23.634Z,43.60
2023-04-07T13:58:52.539Z,43.05
2023-04-07T14:01:21.048Z,44.85
2023-04-07T14:03:50.550Z,44.20
2023-04-07T14:06:22.673Z,44.03
2023-04-07T14:08:51.252Z,45.80
2023-04-07T14:11:22.209Z,47.88
2023-04-07T14:13:51.554Z,48.15
2023-04-07T14:16:20.175Z,45.70
2023-04-07T14:18:49.703Z,43.47
2023-04-07T14:21:18.169Z,45.60
2023-04-07T14:23:47.503Z,46.35
2023-04-07T14:26:16.156Z,48.88
2023-04-07T14:28:46.017Z,50.65
2023-04-07T14:31:15.805Z,47.28
2023-04-07T14:33:44.342Z,46.25
2023-04-07T14:36:13.060Z,46.85
2023-04-07T14:38:41.796Z,45.28
2023-04-07T14:41:10.884Z,44.85
2023-04-07T14:43:39.777Z,49.42
2023-04-07T14:46:10.134Z,46.35
2023-04-07T14:48:39.151Z,43.28
2023-04-07T14:51:13.718Z,44.38
2023-04-07T14:53:43.502Z,44.45
2023-04-07T14:56:11.959Z,45.78
2023-04-07T14:58:40.701Z,45.10
2023-04-07T15:01:10.639Z,44.20
2023-04-07T15:03:39.343Z,46.45
2023-04-07T15:06:11.667Z,48.45
2023-04-07T15:08:40.520Z,43.75
2023-04-07T15:11:09.485Z,44.47
2023-04-07T15:13:38.301Z,45.63
2023-04-07T15:16:14.139Z,45.35
2023-04-07T15:18:44.548Z,52.00
2023-04-07T15:21:14.588Z,45.95
2023-04-07T15:23:43.387Z,49.90
2023-04-07T15:26:12.168Z,49.63
2023-04-07T15:28:41.114Z,50.92
2023-04-07T15:31:11.217Z,49.13
2023-04-07T15:33:41.139Z,48.00
2023-04-07T15:36:10.267Z,46.17
2023-04-07T15:38:40.454Z,43.60
2023-04-07T15:41:09.199Z,45.65
2023-04-07T15:43:37.991Z,43.25
2023-04-07T15:46:06.581Z,46.00
2023-04-07T15:48:36.689Z,72.93
2023-04-07T15:51:05.903Z,105.93
2023-04-07T15:53:34.693Z,46.85
2023-04-07T15:56:03.509Z,46.70
2023-04-07T15:58:33.364Z,43.28
2023-04-07T16:01:02.365Z,46.70
2023-04-07T16:03:32.253Z,44.30
2023-04-07T16:06:02.227Z,48.08
2023-04-07T16:08:30.741Z,43.45
2023-04-07T16:10:59.225Z,47.55
2023-04-07T16:13:28.110Z,46.85
2023-04-07T16:15:58.388Z,44.58
2023-04-07T16:18:26.920Z,48.70
2023-04-07T16:20:55.335Z,47.03
2023-04-07T16:23:25.184Z,47.72
2023-04-07T16:25:53.593Z,47.90
2023-04-07T16:28:22.128Z,45.17
2023-04-07T16:30:50.564Z,58.13
2023-04-07T16:33:19.008Z,46.25
2023-04-07T16:35:47.566Z,45.25
2023-04-07T16:38:16.161Z,45.47
2023-04-07T16:41:02.666Z,46.47
2023-04-07T16:43:32.167Z,46.38
2023-04-07T16:46:01.100Z,50.28
2023-04-07T16:48:30.510Z,47.00
2023-04-07T16:50:58.987Z,45.28
2023-04-07T16:53:27.507Z,48.25
2023-04-07T16:55:57.662Z,46.83
2023-04-07T16:58:26.234Z,44.63
2023-04-07T17:00:54.624Z,46.17
2023-04-07T17:03:23.172Z,47.83
2023-04-07T17:05:51.757Z,47.40
2023-04-07T17:08:20.164Z,44.35
2023-04-07T17:10:48.603Z,44.55
2023-04-07T17:13:18.451Z,45.53
2023-04-07T17:15:46.968Z,51.33
2023-04-07T17:18:15.504Z,48.63
2023-04-07T17:20:43.975Z,65.72
2023-04-07T17:23:12.833Z,49.08
2023-04-07T17:25:41.332Z,46.38
2023-04-07T17:28:09.830Z,48.85
2023-04-07T17:30:39.675Z,44.20
2023-04-07T17:33:08.663Z,46.13
2023-04-07T17:35:37.370Z,46.50
2023-04-07T17:38:06.753Z,46.00
2023-04-07T17:40:35.394Z,44.15
2023-04-07T17:43:03.816Z,43.20
2023-04-07T17:45:33.039Z,43.75
2023-04-07T17:48:03.754Z,45.50
2023-04-07T17:50:32.801Z,45.40
2023-04-07T17:53:01.513Z,43.42
2023-04-07T17:55:29.954Z,45.10
2023-04-07T17:58:01.143Z,43.08
2023-04-07T18:00:30.567Z,44.47
2023-04-07T18:02:59.287Z,44.15
2023-04-07T18:05:31.038Z,47.05
2023-04-07T18:10:28.286Z,46.60
2023-04-07T18:12:56.809Z,47.08
2023-04-07T18:15:25.289Z,46.17
2023-04-07T18:17:55.097Z,48.03
2023-04-07T18:20:23.693Z,51.10
2023-04-07T18:22:55.518Z,49.50
2023-04-07T18:27:52.237Z,53.22
2023-04-07T18:30:21.443Z,45.70
2023-04-07T18:32:50.320Z,51.10
2023-04-07T18:35:18.736Z,48.35
2023-04-07T18:37:47.361Z,45.67
2023-04-07T18:40:17.435Z,44.70
2023-04-07T18:42:45.894Z,43.92
2023-04-07T18:45:14.258Z,45.95
2023-04-07T18:47:42.729Z,42.67
2023-04-07T18:50:12.048Z,43.55
2023-04-07T18:52:40.570Z,42.60
2023-04-07T18:55:11.073Z,44.53
2023-04-07T18:57:41.440Z,43.90
2023-04-07T19:00:11.009Z,48.67
2023-04-07T19:02:44.349Z,44.97
2023-04-07T19:05:13.489Z,48.30
2023-04-07T19:07:42.002Z,44.47
2023-04-07T19:10:11.149Z,48.50
2023-04-07T19:12:41.312Z,50.42
2023-04-07T19:15:11.425Z,46.88
2023-04-07T19:17:40.280Z,47.58
2023-04-07T19:20:10.103Z,46.22
2023-04-07T19:22:38.690Z,48.70
2023-04-07T19:25:08.819Z,49.13
2023-04-07T19:27:39.529Z,48.85
2023-04-07T19:30:11.419Z,49.25
2023-04-07T19:32:40.187Z,48.05
2023-04-07T19:35:10.085Z,50.20
2023-04-07T19:37:40.343Z,48.67
2023-04-07T19:40:09.959Z,50.05
2023-04-07T19:42:39.323Z,48.45
2023-04-07T19:45:11.505Z,47.75
2023-04-07T19:47:40.295Z,49.83
2023-04-07T19:50:11.196Z,49.20
2023-04-07T19:52:40.089Z,47.00
2023-04-07T19:55:10.851Z,46.88
2023-04-07T19:57:40.456Z,49.10
2023-04-07T20:00:12.172Z,51.35
2023-04-07T20:05:10.527Z,48.50
2023-04-07T20:07:39.588Z,47.00
2023-04-07T20:10:09.551Z,48.25
2023-04-07T20:12:38.003Z,50.95
2023-04-07T20:15:10.155Z,48.25
2023-04-07T20:17:38.679Z,47.95
2023-04-07T20:20:08.957Z,50.75
2023-04-07T20:22:37.508Z,50.08
2023-04-07T20:25:07.033Z,49.30
2023-04-07T20:27:35.902Z,47.30
2023-04-07T20:30:05.098Z,48.63
2023-04-07T20:32:34.983Z,72.13
2023-04-07T20:35:04.915Z,57.67
2023-04-07T20:37:33.406Z,50.95
2023-04-07T20:40:01.839Z,45.58
2023-04-07T20:42:33.098Z,48.92
2023-04-07T20:45:03.795Z,47.08
2023-04-07T20:47:36.118Z,47.93
2023-04-07T20:50:04.994Z,48.70
2023-04-07T20:52:33.670Z,47.83
2023-04-07T20:55:02.032Z,46.78
2023-04-07T20:57:30.717Z,46.80
2023-04-07T20:59:59.234Z,49.35
2023-04-07T21:02:27.832Z,47.25
2023-04-07T21:04:58.072Z,50.72
2023-04-07T21:07:26.522Z,46.92
2023-04-07T21:09:54.924Z,46.85
2023-04-07T21:12:23.376Z,48.47
2023-04-07T21:14:52.241Z,48.13
2023-04-07T21:17:20.945Z,47.72
2023-04-07T21:19:49.485Z,48.75
2023-04-07T21:22:19.366Z,50.85
2023-04-07T21:24:47.759Z,48.08
2023-04-07T21:27:17.725Z,50.25
2023-04-07T21:29:46.387Z,52.25
2023-04-07T21:32:15.444Z,51.35
2023-04-07T21:34:43.852Z,57.47
2023-04-07T21:37:12.356Z,59.38
2023-04-07T21:39:42.181Z,55.88
2023-04-07T21:42:10.578Z,53.83
2023-04-07T21:44:39.070Z,50.55
2023-04-07T21:47:07.478Z,71.45
2023-04-07T21:49:38.584Z,53.55
2023-04-07T21:52:07.727Z,51.78
2023-04-07T21:54:36.557Z,51.20
2023-04-07T21:57:06.448Z,53.38
2023-04-07T21:59:35.502Z,50.53
2023-04-07T22:02:04.505Z,50.72
2023-04-07T22:04:33.032Z,50.95
2023-04-07T22:07:01.474Z,52.35
2023-04-07T22:09:29.859Z,52.88
2023-04-07T22:11:58.377Z,60.65
2023-04-07T22:14:28.208Z,47.80
2023-04-07T22:16:57.002Z,49.78
2023-04-07T22:19:25.696Z,50.42
2023-04-07T22:21:56.506Z,50.53
2023-04-07T22:24:25.092Z,45.80
2023-04-07T22:26:54.012Z,49.67
2023-04-07T22:29:22.462Z,49.15
2023-04-07T22:31:52.337Z,49.50
2023-04-07T22:34:21.019Z,48.63
2023-04-07T22:36:49.495Z,49.03
2023-04-07T22:39:17.959Z,50.38
2023-04-07T22:41:46.661Z,50.92
2023-04-07T22:44:15.038Z,49.90
2023-04-07T22:46:43.524Z,52.88
2023-04-07T22:49:13.412Z,55.00
2023-04-07T22:51:41.851Z,57.33
2023-04-07T22:54:10.304Z,58.55
2023-04-07T22:56:38.692Z,54.75
2023-04-07T22:59:07.111Z,57.45
2023-04-07T23:01:35.887Z,55.30
2023-04-07T23:04:04.387Z,60.55
2023-04-07T23:06:34.190Z,62.30
2023-04-07T23:09:02.654Z,63.20
2023-04-07T23:11:31.092Z,56.55
2023-04-07T23:13:59.527Z,54.97
2023-04-07T23:16:27.954Z,54.33
2023-04-07T23:18:56.556Z,57.10
2023-04-07T23:21:24.983Z,51.63
2023-04-07T23:23:55.336Z,58.38
2023-04-07T23:26:23.708Z,54.65
2023-04-07T23:28:52.277Z,51.85
2023-04-07T23:31:20.871Z,52.88
2023-04-07T23:33:49.350Z,51.78
2023-04-07T23:36:17.764Z,55.85
2023-04-07T23:38:46.197Z,52.80
2023-04-07T23:41:16.350Z,52.00
2023-04-07T23:43:44.746Z,52.47
2023-04-07T23:46:13.165Z,51.35
2023-04-07T23:48:42.397Z,51.03
2023-04-07T23:51:10.799Z,53.88
2023-04-07T23:53:39.460Z,58.00
2023-04-07T23:56:08.676Z,56.28
2023-04-07T23:58:38.496Z,54.47
